SWR1484 LSZH-LKPR
Flight info
| Callsign | SWR1484 |
|---|---|
| Flight time | N/A |
| Altitude | 41000 |
| Route | DEGES Z2 XEBIX N871 NENUM Z39 DOLUP DCT APRAQ |
| Aircraft | A359/H-SDE2E3GHIJ3J4J5LM1ORWXY/LB1D1 |
Departure
| Time | N/A |
|---|---|
| Airport | Zürich Airport (LSZH) |
Arrival
| Time | 2026-04-30 21:00 |
|---|---|
| Airport | Václav Havel Airport Prague (LKPR) |
| Time | Latitude | Longitude | Altitude | Speed | Heading |
|---|---|---|---|---|---|
| 2026-04-30 20:40 | 48.74899 | 13.12860 | 41000 ft | 491 kts | 29° |
| 2026-04-30 20:40 | 48.80840 | 13.17987 | 40999 ft | 491 kts | 30° |
| 2026-04-30 20:41 | 48.86745 | 13.23081 | 40030 ft | 488 kts | 28° |
| 2026-04-30 20:41 | 48.89827 | 13.25294 | 39093 ft | 492 kts | 24° |
| 2026-04-30 20:41 | 48.92977 | 13.27385 | 38197 ft | 495 kts | 23° |
| 2026-04-30 20:41 | 48.96145 | 13.29430 | 37294 ft | 497 kts | 22° |
| 2026-04-30 20:42 | 48.99344 | 13.31463 | 36380 ft | 498 kts | 22° |
| 2026-04-30 20:42 | 49.02543 | 13.33486 | 35466 ft | 498 kts | 22° |
| 2026-04-30 20:42 | 49.08959 | 13.37559 | 33475 ft | 502 kts | 23° |
| 2026-04-30 20:43 | 49.12032 | 13.40108 | 32376 ft | 504 kts | 34° |
| 2026-04-30 20:43 | 49.14784 | 13.43426 | 31268 ft | 506 kts | 40° |
| 2026-04-30 20:43 | 49.17444 | 13.46956 | 30116 ft | 508 kts | 41° |
| 2026-04-30 20:44 | 49.22720 | 13.54115 | 28106 ft | 503 kts | 41° |
| 2026-04-30 20:44 | 49.25314 | 13.57654 | 27271 ft | 497 kts | 41° |
| 2026-04-30 20:44 | 49.30404 | 13.64614 | 25662 ft | 484 kts | 41° |
| 2026-04-30 20:45 | 49.35365 | 13.71417 | 24093 ft | 473 kts | 41° |
| 2026-04-30 20:45 | 49.37797 | 13.74760 | 23312 ft | 467 kts | 41° |
| 2026-04-30 20:45 | 49.40201 | 13.78069 | 22536 ft | 461 kts | 41° |
| 2026-04-30 20:46 | 49.47221 | 13.87755 | 20267 ft | 443 kts | 41° |
| 2026-04-30 20:46 | 49.49496 | 13.90903 | 19532 ft | 438 kts | 41° |
| 2026-04-30 20:47 | 49.54342 | 13.95866 | 18588 ft | 395 kts | 21° |
| 2026-04-30 20:47 | 49.56895 | 13.96962 | 18043 ft | 370 kts | 10° |
| 2026-04-30 20:48 | 49.61685 | 13.98013 | 16904 ft | 335 kts | 7° |
| 2026-04-30 20:48 | 49.63971 | 13.98454 | 16101 ft | 328 kts | 6° |
| 2026-04-30 20:48 | 49.66221 | 13.98880 | 15247 ft | 323 kts | 6° |
| 2026-04-30 20:48 | 49.68432 | 13.99296 | 14391 ft | 318 kts | 6° |
| 2026-04-30 20:49 | 49.70613 | 13.99705 | 13536 ft | 314 kts | 6° |
| 2026-04-30 20:49 | 49.72075 | 13.99978 | 12965 ft | 311 kts | 6° |
| 2026-04-30 20:49 | 49.74179 | 14.00372 | 12119 ft | 307 kts | 6° |
| 2026-04-30 20:50 | 49.78349 | 14.01153 | 10452 ft | 296 kts | 6° |
| 2026-04-30 20:50 | 49.80377 | 14.01533 | 9651 ft | 291 kts | 6° |
| 2026-04-30 20:50 | 49.82371 | 14.01907 | 8822 ft | 286 kts | 6° |
| 2026-04-30 20:50 | 49.84331 | 14.02275 | 8132 ft | 279 kts | 6° |
| 2026-04-30 20:51 | 49.86191 | 14.02625 | 7775 ft | 260 kts | 6° |
| 2026-04-30 20:51 | 49.89501 | 14.03249 | 7417 ft | 218 kts | 6° |
| 2026-04-30 20:51 | 49.90938 | 14.03521 | 7304 ft | 197 kts | 6° |
| 2026-04-30 20:52 | 49.92232 | 14.03765 | 7150 ft | 180 kts | 6° |
| 2026-04-30 20:52 | 49.93462 | 14.03996 | 6971 ft | 174 kts | 6° |
| 2026-04-30 20:52 | 49.95714 | 14.04061 | 6634 ft | 153 kts | 342° |
| 2026-04-30 20:53 | 49.96658 | 14.03366 | 6344 ft | 149 kts | 330° |
| 2026-04-30 20:53 | 49.97544 | 14.02557 | 6033 ft | 147 kts | 328° |
| 2026-04-30 20:53 | 49.98418 | 14.01746 | 5711 ft | 146 kts | 328° |
| 2026-04-30 20:54 | 50.00153 | 14.00146 | 5083 ft | 144 kts | 328° |
| 2026-04-30 20:54 | 50.01014 | 13.99357 | 4776 ft | 143 kts | 329° |
| 2026-04-30 20:54 | 50.01932 | 13.98762 | 4419 ft | 145 kts | 349° |
| 2026-04-30 20:55 | 50.03520 | 14.00329 | 3976 ft | 138 kts | 57° |
| 2026-04-30 20:55 | 50.03926 | 14.01658 | 3806 ft | 135 kts | 68° |
| 2026-04-30 20:55 | 50.04293 | 14.02987 | 3559 ft | 132 kts | 65° |
| 2026-04-30 20:56 | 50.05061 | 14.05554 | 3546 ft | 133 kts | 64° |
| 2026-04-30 20:56 | 50.05449 | 14.06846 | 3510 ft | 130 kts | 64° |
| 2026-04-30 20:56 | 50.06167 | 14.09264 | 3110 ft | 118 kts | 64° |
| 2026-04-30 20:57 | 50.06509 | 14.10428 | 2972 ft | 119 kts | 64° |
| 2026-04-30 20:57 | 50.06852 | 14.11597 | 2828 ft | 118 kts | 63° |
| 2026-04-30 20:57 | 50.07202 | 14.12758 | 2665 ft | 118 kts | 64° |
| 2026-04-30 20:58 | 50.07905 | 14.15067 | 2349 ft | 118 kts | 64° |
| 2026-04-30 20:58 | 50.08244 | 14.16234 | 2161 ft | 118 kts | 64° |
| 2026-04-30 20:58 | 50.08592 | 14.17389 | 2014 ft | 119 kts | 64° |
| 2026-04-30 20:58 | 50.08952 | 14.18540 | 1844 ft | 120 kts | 62° |
| 2026-04-30 20:59 | 50.09666 | 14.20922 | 1451 ft | 121 kts | 64° |
| 2026-04-30 20:59 | 50.10026 | 14.22135 | 1321 ft | 122 kts | 64° |
| 2026-04-30 21:00 | 50.10716 | 14.24412 | 1165 ft | 98 kts | 65° |
| 2026-04-30 21:00 | 50.11031 | 14.25461 | 1164 ft | 45 kts | 65° |
| 2026-04-30 21:01 | 50.11115 | 14.25838 | 1160 ft | 13 kts | 83° |
| 2026-04-30 21:01 | 50.11116 | 14.25991 | 1162 ft | 15 kts | 97° |
| 2026-04-30 21:01 | 50.11099 | 14.26137 | 1162 ft | 2 kts | 125° |
| 2026-04-30 21:02 | 50.11090 | 14.26138 | 1161 ft | 2 kts | 174° |
| 2026-04-30 21:02 | 50.11074 | 14.26132 | 1163 ft | 2 kts | 193° |
| 2026-04-30 21:02 | 50.11060 | 14.26126 | 1165 ft | 2 kts | 195° |
| 2026-04-30 21:02 | 50.11048 | 14.26119 | 1163 ft | 1 kts | 211° |
| 2026-04-30 21:03 | 50.11029 | 14.26076 | 1164 ft | 13 kts | 236° |
| 2026-04-30 21:03 | 50.10978 | 14.25981 | 1164 ft | 4 kts | 193° |
| 2026-04-30 21:03 | 50.10961 | 14.25993 | 1166 ft | 8 kts | 154° |
| 2026-04-30 21:03 | 50.10922 | 14.26049 | 1171 ft | 6 kts | 127° |
| 2026-04-30 21:04 | 50.10912 | 14.26090 | 1173 ft | 7 kts | 103° |
| 2026-04-30 21:04 | 50.10934 | 14.26142 | 1172 ft | 7 kts | 34° |
| 2026-04-30 21:04 | 50.11076 | 14.26306 | 1169 ft | 0 kts | 59° |
| 2026-04-30 21:05 | 50.11078 | 14.26328 | 1170 ft | 5 kts | 81° |
| 2026-04-30 21:05 | 50.11078 | 14.26411 | 1174 ft | 10 kts | 94° |
| 2026-04-30 21:05 | 50.11073 | 14.26542 | 1176 ft | 14 kts | 83° |
| 2026-04-30 21:05 | 50.11075 | 14.26601 | 1177 ft | 1 kts | 98° |
| 2026-04-30 21:06 | 50.11068 | 14.26618 | 1178 ft | 7 kts | 119° |
| 2026-04-30 21:06 | 50.11058 | 14.26675 | 1180 ft | 5 kts | 97° |
| 2026-04-30 21:06 | 50.11057 | 14.26682 | 1180 ft | 1 kts | 97° |
| 2026-04-30 21:06 | 50.11056 | 14.26708 | 1180 ft | 2 kts | 92° |
| 2026-04-30 21:07 | 50.11057 | 14.26722 | 1180 ft | 0 kts | 86° |
| 2026-04-30 21:07 | 50.11057 | 14.26727 | 1180 ft | 1 kts | 86° |
| 2026-04-30 21:07 | 50.11058 | 14.26737 | 1180 ft | 0 kts | 82° |
| 2026-04-30 21:07 | 50.11058 | 14.26738 | 1180 ft | 0 kts | 83° |
| 2026-04-30 21:08 | 50.11058 | 14.26745 | 1180 ft | 0 kts | 85° |
| 2026-04-30 21:08 | 50.11058 | 14.26756 | 1180 ft | 0 kts | 85° |
| 2026-04-30 21:08 | 50.11058 | 14.26757 | 1180 ft | 0 kts | 85° |